Share

Stella, MO (64867)

Farm Road 2100 (KMOWHEAT3) Elev 1335 ft | 36.79 °N, 94.07 °W | Change Station

Current weather conditions updated 1 second ago

Overcast
Overcast
60.1 °F
Feels Like 60.1 °F
N
2.0
Wind Variable Wind from ESE
Gusts 3.0 mph
Sunrise 6:36 AM
Sunset 7:55 PM
Moon Waning Gibbous

Tomorrow is forecast to be Cooler than today. Thunderstorms.

Pressure 30.04 in
Visibility 10.0 miles
Clouds Overcast 11000 ft
Dew Point 53 °F
Humidity 77%
Rainfall 0.00 in
Snow Depth Not available.
UV 0 out of 16
Pollen 10.80 out of 12
Air Quality Not available.
Flu Activity Sporadic
METAR KHFJ 210415Z AUTO 15005KT 10SM OVC110 17/11 A3004 RMK AO2

More Conditions Fewer Conditions

Pressure 30.04 in
Visibility 10.0 miles
Clouds Overcast 11000 ft
Dew Point 53 °F
Humidity 77%
Rainfall 0.00 in
Snow Depth Not available.
UV 0 out of 16
Pollen 10.80 out of 12
Air Quality Not available.
Flu Activity Sporadic
METAR KHFJ 210415Z AUTO 15005KT 10SM OVC110 17/11 A3004 RMK AO2

More Conditions Fewer Conditions

10-Day Weather Forecast

Almanac

Astronomy

Apr. 20, 2014 Rise Set
Actual Time 6:36 AM CDT 7:55 PM CDT
Civil Twilight 6:09 AM CDT 8:22 PM CDT
Nautical Twilight 5:37 AM CDT 8:55 PM CDT
Astronomical Twilight 5:03 AM CDT 9:29 PM CDT
Moon 12:33 AM CDT (4/20) 11:00 AM CDT (4/20)
Length of Visible Light 14h 13m
Length of Day
13h 19m
Tomorrow will be 2m 10s longer.
Waning Gibbous, 63% of the Moon is Illuminated
Apr 21
Waning Gibbous
Apr 22
Last Quarter
Apr 29
New
May 6
First Quarter
May 14
Full

Today's Extremes

State Highs State Lows

Community

  • Snowy Robin
    Snowy Robin
  • Sun Pillar and Geese
    Sun Pillar and Geese
  • Showers on the Way
    Showers on the Way
  • Easter Morning Fog
    Easter Morning Fog
  • Easter Dance
    Easter Dance

WunderPhotos

Upload Photos

1,703,556 photos uploaded!

WunderBlogs® & News

Nearby

Snow Depth

Station Depth Elevation
No new snow has been reported.

Coastal Water Temperatures

Place Temperature
No Stations Reporting

Earthquake Activity

City Distance Mag. Time & Date
No recent earthquake activity has been reported nearby.
Minimum magnitude displayed is 2.5.

Nearby Weather Stations

Station Location Temp. Dew Point Humidity Wind Precip. Elev Updated Type
Farm Road 2100, Wheaton, MO 60.1 °F 53 °F 77% ESE  at  2.0 mph 0.00 in / hr 1335 ft 11:23 PM CDT Rapid Fire
South east of Granby, Granby, MO 65.3 °F 48 °F 54% SE  at  0.0 mph 0.00 in / hr 1217 ft 10:05 PM CDT Rapid Fire
Loch Lomond, Bella Vista, AR 67.0 °F 53 °F 60% WSW  at  0.0 mph 0.00 in / hr 1243 ft 11:03 PM CDT Normal
Monett, MO 64.9 °F 53 °F 66% East  at  1.9 mph 0.00 in / hr 1306 ft 11:23 PM CDT Normal
W5VAN, Rogers, AR 62.8 °F 51 °F 65% SSW  at  0.0 mph 0.00 in / hr 1227 ft 12:23 AM EDT Rapid Fire
Avoca, Rogers, AR 62.8 °F 54 °F 72% ESE  at  1.7 mph - / hr 1348 ft 11:16 PM CDT Normal

Show More Stations Show Fewer Stations

What do you think?

We're not finished. Please let us know what you like, what you don't like, and what you are still missing.